createdAt,value
2019-04-07T00:01:50.398Z,88.90
2019-04-07T00:04:18.026Z,81.28
2019-04-07T00:06:55.449Z,90.13
2019-04-07T00:09:27.646Z,85.90
2019-04-07T00:11:55.250Z,94.10
2019-04-07T00:14:22.908Z,87.95
2019-04-07T00:16:51.748Z,87.65
2019-04-07T00:19:19.902Z,82.90
2019-04-07T00:21:48.954Z,86.20
2019-04-07T00:24:16.668Z,81.90
2019-04-07T00:26:45.243Z,88.92
2019-04-07T00:29:12.717Z,86.42
2019-04-07T00:31:42.265Z,82.80
2019-04-07T00:34:11.941Z,91.75
2019-04-07T00:36:40.191Z,90.77
2019-04-07T00:39:10.439Z,95.15
2019-04-07T00:41:38.672Z,92.25
2019-04-07T00:44:06.229Z,88.42
2019-04-07T00:46:37.123Z,88.70
2019-04-07T00:49:05.074Z,97.93
2019-04-07T00:51:42.110Z,84.43
2019-04-07T00:54:11.509Z,95.83
2019-04-07T00:56:39.090Z,84.83
2019-04-07T00:59:07.710Z,86.85
2019-04-07T01:01:36.284Z,85.03
2019-04-07T01:04:08.950Z,88.62
2019-04-07T01:06:39.564Z,88.95
2019-04-07T01:09:09.092Z,94.52
2019-04-07T01:11:40.119Z,98.27
2019-04-07T01:14:09.331Z,89.75
2019-04-07T01:16:38.470Z,97.62
2019-04-07T01:19:05.779Z,105.03
2019-04-07T01:21:33.172Z,96.80
2019-04-07T01:24:02.334Z,108.50
2019-04-07T01:26:29.580Z,102.07
2019-04-07T01:28:59.210Z,96.65
2019-04-07T01:31:29.781Z,106.85
2019-04-07T01:33:57.159Z,109.90
2019-04-07T01:36:24.953Z,96.17
2019-04-07T01:38:54.125Z,96.00
2019-04-07T01:41:30.732Z,109.37
2019-04-07T01:44:06.818Z,86.47
2019-04-07T01:46:38.323Z,92.02
2019-04-07T01:49:19.456Z,101.65
2019-04-07T01:52:01.878Z,99.90
2019-04-07T01:54:31.050Z,104.27
2019-04-07T01:57:17.104Z,94.10
2019-04-07T01:59:47.738Z,104.97
2019-04-07T02:02:17.455Z,89.92
2019-04-07T02:04:52.140Z,102.70
2019-04-07T02:07:33.812Z,104.63
2019-04-07T02:10:02.834Z,107.10
2019-04-07T02:12:40.144Z,107.32
2019-04-07T02:15:10.543Z,110.45
2019-04-07T02:17:43.927Z,110.95
2019-04-07T02:20:32.212Z,109.27
2019-04-07T02:23:01.969Z,115.57
2019-04-07T02:25:31.569Z,103.67
2019-04-07T02:28:12.685Z,118.47
2019-04-07T02:30:44.773Z,102.80
2019-04-07T02:33:31.011Z,103.17
2019-04-07T02:36:13.630Z,105.30
2019-04-07T02:38:34.351Z,105.53
2019-04-07T02:41:04.198Z,97.30
2019-04-07T02:43:40.268Z,103.85
2019-04-07T02:46:13.029Z,109.95
2019-04-07T02:48:45.380Z,119.47
2019-04-07T02:51:28.445Z,107.05
2019-04-07T02:54:00.789Z,104.90
2019-04-07T02:56:37.684Z,96.20
2019-04-07T02:59:06.737Z,106.10
2019-04-07T03:01:52.579Z,109.72
2019-04-07T03:04:29.158Z,103.30
2019-04-07T03:07:00.555Z,100.40
2019-04-07T03:09:31.204Z,99.33
2019-04-07T03:12:11.033Z,105.43
2019-04-07T03:14:52.956Z,101.65
2019-04-07T03:17:38.992Z,100.77
2019-04-07T03:20:15.339Z,113.88
2019-04-07T03:22:44.485Z,99.58
2019-04-07T03:25:15.617Z,99.90
2019-04-07T03:27:54.683Z,102.32
2019-04-07T03:30:27.475Z,102.30
2019-04-07T03:33:14.244Z,103.05
2019-04-07T03:36:02.668Z,102.02
2019-04-07T03:38:30.078Z,96.72
2019-04-07T03:41:11.966Z,105.52
2019-04-07T03:43:44.212Z,101.22
2019-04-07T03:46:22.432Z,106.30
2019-04-07T03:48:53.906Z,100.75
2019-04-07T03:51:37.647Z,108.63
2019-04-07T03:54:07.214Z,111.12
2019-04-07T03:56:53.065Z,101.33
2019-04-07T03:59:28.930Z,100.20
2019-04-07T04:02:06.823Z,97.50
2019-04-07T04:04:39.506Z,97.67
2019-04-07T04:07:22.453Z,105.87
2019-04-07T04:09:48.963Z,108.63
2019-04-07T04:15:22.267Z,102.97
2019-04-07T04:17:51.160Z,102.92
2019-04-07T04:20:20.097Z,105.15
2019-04-07T04:22:50.657Z,104.58
2019-04-07T04:25:19.051Z,101.80
2019-04-07T04:27:51.351Z,109.22
2019-04-07T04:30:18.957Z,112.57
2019-04-07T04:32:46.427Z,97.70
2019-04-07T04:35:14.807Z,108.22
2019-04-07T04:37:51.691Z,96.85
2019-04-07T04:40:18.112Z,95.00
2019-04-07T04:42:48.511Z,100.15
2019-04-07T04:45:16.079Z,94.13
2019-04-07T04:47:43.364Z,96.87
2019-04-07T04:50:10.728Z,102.15
2019-04-07T04:52:38.316Z,90.70
2019-04-07T04:55:07.052Z,91.72
2019-04-07T04:57:35.304Z,103.53
2019-04-07T05:00:05.259Z,94.23
2019-04-07T05:02:34.761Z,94.50
2019-04-07T05:05:09.437Z,104.80
2019-04-07T05:07:54.892Z,101.50
2019-04-07T05:10:17.024Z,95.80
2019-04-07T05:12:48.322Z,101.15
2019-04-07T05:15:18.781Z,103.60
2019-04-07T05:17:47.199Z,99.40
2019-04-07T05:20:19.260Z,101.95
2019-04-07T05:22:46.561Z,100.78
2019-04-07T05:25:15.083Z,88.12
2019-04-07T05:27:44.703Z,92.70
2019-04-07T05:30:12.366Z,83.47
2019-04-07T05:32:40.202Z,89.95
2019-04-07T05:35:09.331Z,93.78
2019-04-07T05:37:38.531Z,101.55
2019-04-07T05:40:23.466Z,84.70
2019-04-07T05:42:54.638Z,97.02
2019-04-07T05:45:29.451Z,88.37
2019-04-07T05:47:56.834Z,82.88
2019-04-07T05:50:28.767Z,81.97
2019-04-07T05:52:57.556Z,88.87
2019-04-07T05:55:29.285Z,87.13
2019-04-07T05:57:59.598Z,90.35
2019-04-07T06:00:28.671Z,85.25
2019-04-07T06:03:08.240Z,81.15
2019-04-07T06:05:38.566Z,77.75
2019-04-07T06:08:21.036Z,81.97
2019-04-07T06:10:35.995Z,80.50
2019-04-07T06:13:03.296Z,78.40
2019-04-07T06:15:31.198Z,73.85
2019-04-07T06:18:01.369Z,77.58
2019-04-07T06:20:28.011Z,79.15
2019-04-07T06:22:55.337Z,74.23
2019-04-07T06:25:22.710Z,72.47
2019-04-07T06:27:50.112Z,74.53
2019-04-07T06:30:18.708Z,77.22
2019-04-07T06:32:46.314Z,71.00
2019-04-07T06:35:14.170Z,79.62
2019-04-07T06:37:42.864Z,69.97
2019-04-07T06:40:10.244Z,66.40
2019-04-07T06:42:37.631Z,65.17
2019-04-07T06:45:09.592Z,71.55
2019-04-07T06:47:38.772Z,69.23
2019-04-07T06:50:15.641Z,65.75
2019-04-07T06:52:47.788Z,63.42
2019-04-07T06:55:34.100Z,60.78
2019-04-07T06:58:22.633Z,64.97
2019-04-07T07:01:11.350Z,57.53
2019-04-07T07:03:57.505Z,57.88
2019-04-07T07:06:26.843Z,57.57
2019-04-07T07:09:13.693Z,55.50
2019-04-07T07:11:46.928Z,54.27
2019-04-07T07:14:41.535Z,54.45
2019-04-07T07:17:09.652Z,52.60
2019-04-07T07:20:01.332Z,53.20
2019-04-07T07:22:34.509Z,51.00
2019-04-07T07:25:01.870Z,51.23
2019-04-07T07:27:31.664Z,48.75
2019-04-07T07:30:01.249Z,45.73
2019-04-07T07:32:35.545Z,43.40
2019-04-07T07:34:59.693Z,42.23
2019-04-07T07:37:29.013Z,40.58
2019-04-07T07:39:57.478Z,38.83
2019-04-07T07:42:25.623Z,37.17
2019-04-07T07:44:53.574Z,36.83
2019-04-07T07:47:22.580Z,36.83
2019-04-07T07:49:49.824Z,37.08
2019-04-07T07:52:19.659Z,36.27
2019-04-07T07:54:46.364Z,35.70
2019-04-07T07:57:16.015Z,34.10
2019-04-07T07:59:45.055Z,34.88
2019-04-07T08:02:17.481Z,31.85
2019-04-07T08:05:00.599Z,32.55
2019-04-07T08:07:33.626Z,31.62
2019-04-07T08:10:01.497Z,30.40
2019-04-07T08:12:32.366Z,29.70
2019-04-07T08:14:58.658Z,30.55
2019-04-07T08:17:31.604Z,28.85
2019-04-07T08:20:04.444Z,27.30
2019-04-07T08:25:46.213Z,27.25
2019-04-07T08:28:16.094Z,27.32
2019-04-07T08:30:47.514Z,25.75
2019-04-07T08:33:13.579Z,26.35
2019-04-07T08:35:43.679Z,26.57
2019-04-07T08:38:11.080Z,25.90
2019-04-07T08:40:39.198Z,24.72
2019-04-07T08:43:07.200Z,24.82
2019-04-07T08:45:40.391Z,24.98
2019-04-07T08:48:04.122Z,25.48
2019-04-07T08:50:32.113Z,26.73
2019-04-07T08:52:59.417Z,22.52
2019-04-07T08:55:28.238Z,22.45
2019-04-07T08:57:58.214Z,22.95
2019-04-07T09:00:27.107Z,22.97
2019-04-07T09:03:04.039Z,22.77
2019-04-07T09:05:27.788Z,22.13
2019-04-07T09:07:52.886Z,21.27
2019-04-07T09:10:26.021Z,20.70
2019-04-07T09:12:53.268Z,21.82
2019-04-07T09:15:28.322Z,22.20
2019-04-07T09:18:00.723Z,23.73
2019-04-07T09:20:36.197Z,23.95
2019-04-07T09:23:17.601Z,24.30
2019-04-07T09:25:46.817Z,26.05
2019-04-07T09:28:21.183Z,27.20
2019-04-07T09:31:06.284Z,27.47
2019-04-07T09:33:38.739Z,29.67
2019-04-07T09:36:19.470Z,29.40
2019-04-07T09:38:57.023Z,28.47
2019-04-07T09:41:36.360Z,29.20
2019-04-07T09:44:09.141Z,29.50
2019-04-07T09:46:54.939Z,30.25
2019-04-07T09:49:40.440Z,29.37
2019-04-07T09:52:25.088Z,29.87
2019-04-07T09:55:16.693Z,30.40
2019-04-07T09:57:50.626Z,29.92
2019-04-07T10:00:25.419Z,30.17
2019-04-07T10:02:55.722Z,29.63
2019-04-07T10:05:30.919Z,29.27
2019-04-07T10:08:17.929Z,31.13
2019-04-07T10:10:47.226Z,30.75
2019-04-07T10:13:19.248Z,30.55
2019-04-07T10:15:51.069Z,29.75
2019-04-07T10:18:36.886Z,31.97
2019-04-07T10:21:22.411Z,31.65
2019-04-07T10:23:51.479Z,31.40
2019-04-07T10:29:37.759Z,30.30
2019-04-07T10:32:24.759Z,30.90
2019-04-07T10:35:02.450Z,31.10
2019-04-07T10:37:36.207Z,30.57
2019-04-07T10:40:26.422Z,31.27
2019-04-07T10:43:05.251Z,31.02
2019-04-07T10:45:43.868Z,31.27
2019-04-07T10:48:24.924Z,30.23
2019-04-07T10:51:10.423Z,29.95
2019-04-07T10:53:59.547Z,31.35
2019-04-07T10:56:29.479Z,32.75
2019-04-07T10:59:01.826Z,30.45
2019-04-07T11:01:39.836Z,31.27
2019-04-07T11:04:22.978Z,29.77
2019-04-07T11:07:10.989Z,30.30
2019-04-07T11:09:55.971Z,29.32
2019-04-07T11:12:39.879Z,29.63
2019-04-07T11:15:27.417Z,29.37
2019-04-07T11:18:12.403Z,28.75
2019-04-07T11:20:41.384Z,28.43
2019-04-07T11:23:10.773Z,29.63
2019-04-07T11:25:39.934Z,27.93
2019-04-07T11:28:14.769Z,28.30
2019-04-07T11:30:52.683Z,27.77
2019-04-07T11:33:27.827Z,28.60
2019-04-07T11:36:00.518Z,29.17
2019-04-07T11:38:29.754Z,29.67
2019-04-07T11:41:04.491Z,28.77
2019-04-07T11:43:40.770Z,29.48
2019-04-07T11:46:22.050Z,28.85
2019-04-07T11:48:51.452Z,29.20
2019-04-07T11:51:32.561Z,28.02
2019-04-07T11:54:01.645Z,29.10
2019-04-07T11:56:43.373Z,29.85
2019-04-07T11:59:15.401Z,29.70
2019-04-07T12:01:53.466Z,29.42
2019-04-07T12:04:23.949Z,28.75
2019-04-07T12:06:53.666Z,27.90
2019-04-07T12:09:29.243Z,28.83
2019-04-07T12:11:58.268Z,27.50
2019-04-07T12:14:27.532Z,27.35
2019-04-07T12:17:13.845Z,24.63
2019-04-07T12:19:56.844Z,23.25
2019-04-07T12:22:35.575Z,25.08
2019-04-07T12:25:23.331Z,23.45
2019-04-07T12:28:01.473Z,23.55
2019-04-07T12:30:39.481Z,24.47
2019-04-07T12:33:09.027Z,23.22
2019-04-07T12:35:41.595Z,21.60
2019-04-07T12:38:12.285Z,22.13
2019-04-07T12:40:41.976Z,21.00
2019-04-07T12:43:27.574Z,22.05
2019-04-07T12:45:56.523Z,22.77
2019-04-07T12:48:27.854Z,21.27
2019-04-07T12:50:56.333Z,21.87
2019-04-07T12:53:37.421Z,21.97
2019-04-07T12:56:13.954Z,22.17
2019-04-07T12:59:17.908Z,21.13
2019-04-07T13:01:52.069Z,22.07
2019-04-07T13:04:34.213Z,20.75
2019-04-07T13:07:23.064Z,20.35
2019-04-07T13:09:53.695Z,20.70
2019-04-07T13:12:24.725Z,20.12
2019-04-07T13:14:56.251Z,20.55
2019-04-07T13:17:28.205Z,19.07
2019-04-07T13:20:06.295Z,20.52
2019-04-07T13:22:39.392Z,20.25
2019-04-07T13:25:29.196Z,20.35
2019-04-07T13:28:01.306Z,18.98
2019-04-07T13:30:48.833Z,19.85
2019-04-07T13:33:21.695Z,20.50
2019-04-07T13:35:55.077Z,21.52
2019-04-07T13:38:25.024Z,21.87
2019-04-07T13:41:10.522Z,19.37
2019-04-07T13:43:56.067Z,19.40
2019-04-07T13:46:35.451Z,18.98
2019-04-07T13:49:07.627Z,19.95
2019-04-07T13:51:47.330Z,20.10
2019-04-07T13:54:33.884Z,20.97
2019-04-07T13:57:22.217Z,20.40
2019-04-07T13:59:52.247Z,18.62
2019-04-07T14:02:26.430Z,19.42
2019-04-07T14:05:08.969Z,19.02
2019-04-07T14:07:37.251Z,20.72
2019-04-07T14:10:09.170Z,20.70
2019-04-07T14:12:50.093Z,18.75
2019-04-07T14:15:37.078Z,19.30
2019-04-07T14:18:06.204Z,18.12
2019-04-07T14:20:44.143Z,18.77
2019-04-07T14:23:13.192Z,17.95
2019-04-07T14:25:52.973Z,18.20
2019-04-07T14:28:31.849Z,18.10
2019-04-07T14:31:07.541Z,18.00
2019-04-07T14:33:37.016Z,18.87
2019-04-07T14:36:18.194Z,18.03
2019-04-07T14:39:04.131Z,18.92
2019-04-07T14:41:42.352Z,17.52
2019-04-07T14:44:28.241Z,16.45
2019-04-07T14:47:09.235Z,16.10
2019-04-07T14:49:38.288Z,15.53
2019-04-07T14:52:07.647Z,13.93
2019-04-07T14:54:57.002Z,14.10
2019-04-07T14:57:39.036Z,12.80
2019-04-07T15:00:25.546Z,12.30
2019-04-07T15:02:52.999Z,12.50
2019-04-07T15:05:31.041Z,11.90
2019-04-07T15:08:00.195Z,12.10
2019-04-07T15:10:43.037Z,12.10
2019-04-07T15:13:24.907Z,12.55
2019-04-07T15:15:51.707Z,12.43
2019-04-07T15:18:19.768Z,12.80
2019-04-07T15:20:48.519Z,13.55
2019-04-07T15:23:16.515Z,13.88
2019-04-07T15:25:46.015Z,14.28
2019-04-07T15:28:15.366Z,14.58
2019-04-07T15:30:47.778Z,13.43
2019-04-07T15:33:14.477Z,14.18
2019-04-07T15:35:45.184Z,15.45
2019-04-07T15:38:10.950Z,15.60
2019-04-07T15:40:39.615Z,17.15
2019-04-07T15:43:09.983Z,16.17
2019-04-07T15:45:39.695Z,16.77
2019-04-07T15:48:08.201Z,16.85
2019-04-07T15:50:38.054Z,17.23
2019-04-07T15:53:07.257Z,16.93
2019-04-07T15:55:45.795Z,17.37
2019-04-07T15:58:07.431Z,16.05
2019-04-07T16:00:35.322Z,17.65
2019-04-07T16:03:15.697Z,16.90
2019-04-07T16:05:45.892Z,17.77
2019-04-07T16:08:13.575Z,16.82
2019-04-07T16:10:41.369Z,16.40
2019-04-07T16:13:09.848Z,16.70
2019-04-07T16:15:38.348Z,15.88
2019-04-07T16:18:07.294Z,16.27
2019-04-07T16:20:40.241Z,16.82
2019-04-07T16:25:58.391Z,17.02
2019-04-07T16:28:26.096Z,18.37
2019-04-07T16:30:54.291Z,18.15
2019-04-07T16:33:21.793Z,19.70
2019-04-07T16:35:53.949Z,19.30
2019-04-07T16:38:18.117Z,19.55
2019-04-07T16:40:45.525Z,18.30
2019-04-07T16:43:16.285Z,17.77
2019-04-07T16:45:48.547Z,17.87
2019-04-07T16:48:22.906Z,16.77
2019-04-07T16:50:57.871Z,18.02
2019-04-07T16:53:25.886Z,17.43
2019-04-07T16:55:55.586Z,18.55
2019-04-07T16:58:22.479Z,17.75
2019-04-07T17:00:50.298Z,17.77
2019-04-07T17:03:17.862Z,17.50
2019-04-07T17:05:45.245Z,18.10
2019-04-07T17:08:18.568Z,19.70
2019-04-07T17:10:42.431Z,19.52
2019-04-07T17:13:19.889Z,19.12
2019-04-07T17:15:40.946Z,18.67
2019-04-07T17:18:08.937Z,18.37
2019-04-07T17:20:38.198Z,18.15
2019-04-07T17:23:05.608Z,18.60
2019-04-07T17:25:34.519Z,17.35
2019-04-07T17:28:03.755Z,17.75
2019-04-07T17:30:31.465Z,16.87
2019-04-07T17:32:59.636Z,16.17
2019-04-07T17:35:27.206Z,16.55
2019-04-07T17:37:59.799Z,16.52
2019-04-07T17:40:28.872Z,16.07
2019-04-07T17:42:58.608Z,15.78
2019-04-07T17:45:44.034Z,14.93
2019-04-07T17:48:25.564Z,15.83
2019-04-07T17:51:08.750Z,14.80
2019-04-07T17:53:55.165Z,14.45
2019-04-07T17:56:29.793Z,13.73
2019-04-07T17:59:15.904Z,13.75
2019-04-07T18:01:48.005Z,13.65
2019-04-07T18:04:20.862Z,13.50
2019-04-07T18:06:50.647Z,12.70
2019-04-07T18:09:31.815Z,12.40
2019-04-07T18:12:04.382Z,11.88
2019-04-07T18:14:41.184Z,11.65
2019-04-07T18:17:16.251Z,12.80
2019-04-07T18:19:48.472Z,12.10
2019-04-07T18:22:29.780Z,12.00
2019-04-07T18:25:01.923Z,11.93
2019-04-07T18:27:36.270Z,12.25
2019-04-07T18:30:22.067Z,11.73
2019-04-07T18:32:51.453Z,12.05
2019-04-07T18:35:32.779Z,11.22
2019-04-07T18:38:04.332Z,11.85
2019-04-07T18:40:38.868Z,11.75
2019-04-07T18:43:08.284Z,11.65
2019-04-07T18:45:55.512Z,11.95
2019-04-07T18:48:30.761Z,11.53
2019-04-07T18:51:13.223Z,11.93
2019-04-07T18:53:39.327Z,11.80
2019-04-07T18:56:09.763Z,12.20
2019-04-07T18:58:50.804Z,11.80
2019-04-07T19:01:22.291Z,11.90
2019-04-07T19:04:07.680Z,12.33
2019-04-07T19:06:40.854Z,12.13
2019-04-07T19:09:16.684Z,11.65
2019-04-07T19:12:02.985Z,12.82
2019-04-07T19:14:47.232Z,12.93
2019-04-07T19:17:17.235Z,13.45
2019-04-07T19:19:57.451Z,15.83
2019-04-07T19:22:43.306Z,14.70
2019-04-07T19:25:15.730Z,16.37
2019-04-07T19:27:48.330Z,17.47
2019-04-07T19:30:20.575Z,19.67
2019-04-07T19:32:52.653Z,21.00
2019-04-07T19:35:40.672Z,24.47
2019-04-07T19:38:11.011Z,23.98
2019-04-07T19:40:43.376Z,26.42
2019-04-07T19:43:22.064Z,27.42
2019-04-07T19:46:07.841Z,29.07
2019-04-07T19:48:42.489Z,29.27
2019-04-07T19:51:31.906Z,35.13
2019-04-07T19:54:04.471Z,31.35
2019-04-07T19:56:36.953Z,34.95
2019-04-07T19:59:08.239Z,35.48
2019-04-07T20:01:36.782Z,35.65
2019-04-07T20:04:08.119Z,35.53
2019-04-07T20:06:39.803Z,38.75
2019-04-07T20:09:25.692Z,38.65
2019-04-07T20:12:13.430Z,38.08
2019-04-07T20:14:59.274Z,39.78
2019-04-07T20:17:33.043Z,41.08
2019-04-07T20:20:14.022Z,41.68
2019-04-07T20:23:00.050Z,42.45
2019-04-07T20:25:35.492Z,41.00
2019-04-07T20:28:04.604Z,43.70
2019-04-07T20:30:45.603Z,41.48
2019-04-07T20:33:29.943Z,42.48
2019-04-07T20:36:17.671Z,43.13
2019-04-07T20:38:59.228Z,43.35
2019-04-07T20:41:35.899Z,41.13
2019-04-07T20:44:05.480Z,43.33
2019-04-07T20:46:34.526Z,42.43
2019-04-07T20:49:06.457Z,41.55
2019-04-07T20:51:36.760Z,39.67
2019-04-07T20:54:11.819Z,40.08
2019-04-07T20:56:45.866Z,38.23
2019-04-07T20:59:17.097Z,41.65
2019-04-07T21:02:04.187Z,38.15
2019-04-07T21:04:26.596Z,39.20
2019-04-07T21:06:58.845Z,41.40
2019-04-07T21:09:26.122Z,40.48
2019-04-07T21:12:08.134Z,40.67
2019-04-07T21:14:47.320Z,40.15
2019-04-07T21:17:32.808Z,41.10
2019-04-07T21:20:11.770Z,43.80
2019-04-07T21:22:43.979Z,42.88
2019-04-07T21:25:23.862Z,44.23
2019-04-07T21:27:51.455Z,44.05
2019-04-07T21:30:36.838Z,38.77
2019-04-07T21:33:08.986Z,41.15
2019-04-07T21:35:40.541Z,41.80
2019-04-07T21:38:12.260Z,42.05
2019-04-07T21:40:42.474Z,42.70
2019-04-07T21:43:28.113Z,41.53
2019-04-07T21:46:00.782Z,41.00
2019-04-07T21:48:39.159Z,43.65
2019-04-07T21:51:10.730Z,45.85
2019-04-07T21:53:59.955Z,45.23
2019-04-07T21:56:33.435Z,43.58
2019-04-07T21:59:03.244Z,43.17
2019-04-07T22:01:42.116Z,42.13
2019-04-07T22:04:10.972Z,40.70
2019-04-07T22:06:43.190Z,42.03
2019-04-07T22:09:16.821Z,45.28
2019-04-07T22:11:45.051Z,41.30
2019-04-07T22:14:14.699Z,46.48
2019-04-07T22:16:42.833Z,47.80
2019-04-07T22:19:13.556Z,49.55
2019-04-07T22:21:40.357Z,45.58
2019-04-07T22:24:07.620Z,45.98
2019-04-07T22:26:35.006Z,47.93
2019-04-07T22:29:04.018Z,47.03
2019-04-07T22:31:36.650Z,49.67
2019-04-07T22:34:04.638Z,48.30
2019-04-07T22:36:31.946Z,47.73
2019-04-07T22:39:01.277Z,48.42
2019-04-07T22:41:28.209Z,46.20
2019-04-07T22:43:55.553Z,51.23
2019-04-07T22:46:26.082Z,50.30
2019-04-07T22:48:55.190Z,49.27
2019-04-07T22:51:20.925Z,49.27
2019-04-07T22:53:48.153Z,52.83
2019-04-07T22:56:16.054Z,50.83
2019-04-07T22:58:44.414Z,48.90
2019-04-07T23:01:11.909Z,49.83
2019-04-07T23:03:39.194Z,52.67
2019-04-07T23:06:06.487Z,51.05
2019-04-07T23:08:33.788Z,53.23
2019-04-07T23:11:00.985Z,51.77
2019-04-07T23:13:28.217Z,50.35
2019-04-07T23:16:08.250Z,49.10
2019-04-07T23:18:24.395Z,52.23
2019-04-07T23:20:53.648Z,52.00
2019-04-07T23:23:21.782Z,51.15
2019-04-07T23:25:49.120Z,54.05
2019-04-07T23:28:16.722Z,52.93
2019-04-07T23:30:45.026Z,49.55
2019-04-07T23:33:12.496Z,51.83
2019-04-07T23:35:40.025Z,50.95
2019-04-07T23:38:07.904Z,46.92
2019-04-07T23:40:35.242Z,51.73
2019-04-07T23:43:02.668Z,50.75
2019-04-07T23:45:30.025Z,54.98
2019-04-07T23:47:57.384Z,52.00
2019-04-07T23:50:25.212Z,48.73
2019-04-07T23:52:52.734Z,48.05
2019-04-07T23:55:20.500Z,48.13
2019-04-07T23:57:48.686Z,56.53
